VTCC/CNX METAR and TAF weather

Enter ICAO airport designator
Station Type Date Time Source
VTCC METAR 2019/04/25 15:30 UTC NOAA

VTCC 251530Z 32005KT 9999 FEW035 26/21 Q1011 NOSIG


Station Type Date Time Source
VTCC Decoded METAR 2019/04/25 15:30 UTC NOAA

Chiang Mai, Thailand (VTCC) 18-47N 098-59E 314M
Apr 25, 2019 - 11:30 AM EDT / 2019.04.25 1530 UTC
Wind: from the NW (320 degrees) at 6 MPH (5 KT):0
Visibility: greater than 7 mile(s):0
Sky conditions: mostly clear
Temperature: 78 F (26 C)
Dew Point: 69 F (21 C)
Relative Humidity: 73%
Pressure (altimeter): 29.85 in. Hg (1011 hPa)
ob: VTCC 251530Z 32005KT 9999 FEW035 26/21 Q1011 NOSIG
cycle: 15

Station Type Date Time Source
VTCC TAF 2019/04/25 12:36 UTC NOAA

TAF VTCC 251100Z 2512/2618 24005KT 9999 SCT035

Example: see airport list